Create Custom Reports and Graphics: Custom Report

Stanford Met Tower

Current Conditions

2/23/20 2:45 PM (-08:00)
Updated Every 15 Minutes
Temp 59.9 °F   1.3
RH 62 %   5
Dew Pt 46.7 °F   0.7
Wind Dir NNW | 331 °
Wind Spd 6.3 mph   7.8
Wind Gust 11.3 mph   10.7
Solar Rad 526 W/m2   1
Daily Min Temp 39.7 °F   9.1
Daily Max Temp 60.9 °F   3.7
Daily Max Wind 15.9 mph   6.1
Daily Rain 0.00 In
Min Temp Yest 43.6 °F
Max Temp Yest 64.5 °F
Max Wind Yest 22.2 mph
Rain Yest 0.00 In
Seasonal Rainfall 4.39 In

Last 48 Hours

Stanford Met Tower

Hourly Data | America/Los_Angeles
as of 2/23/20 2:57 PM PST
Date & Time Temp (°F) Temp Inversion (°F) RH (%) Dew Pt (°F) Wind Dir (°) Wind Spd (mph) Wind Gust (mph) Latest Rain (In) ETo Hr (in) ETo 2pm (In) Daily Rain (In) Daily Min Temp (°F) Daily Max Temp (°F)
2/23/20 - 1400 59.3 -5.2 60 45.6 NNW | 341 7.1 12.5 0.00 0.013 0.07 0.00 39.7 59.8
2/23/20 - 1300 58.3 -5.1 62 45.4 NNW | 327 4.8 12.2 0.00 0.012 0.08 0.00 39.7 59.7
2/23/20 - 1200 56.7 -4.1 68 46.1 NW | 314 7.1 15.9 0.00 0.013 0.08 0.00 39.7 57.7
2/23/20 - 1100 54.2 -1.9 73 45.7 NW | 314 5.2 15.9 0.00 0.007 0.08 0.00 39.7 56.0
2/23/20 - 1000 54.6 -3.5 70 44.9 NW | 319 2.6 7.3 0.00 0.005 0.08 0.00 39.7 55.2
2/23/20 - 0900 52.7 -0.3 75 45.0 ESE | 115 2.5 6.3 0.00 0.004 0.08 0.00 39.7 53.3
2/23/20 - 0800 47.8 0.7 90 44.9 SE | 126 3.9 8.8 0.00 0.000 0.08 0.00 39.7 47.9
2/23/20 - 0700 42.4 0.8 97 41.5 SSW | 193 2.8 5.0 0.00 0.000 0.08 0.00 39.7 45.4
2/23/20 - 0600 42.4 1.4 99 42.0 WSW | 238 2.4 4.5 0.00 0.000 0.08 0.00 39.7 45.4
2/23/20 - 0500 40.2 3.5 98 39.7 SE | 131 3.5 6.4 0.00 0.000 0.08 0.00 40.2 45.4
2/23/20 - 0400 43.3 2.5 96 42.2 NNW | 330 0.6 3.1 0.00 0.000 0.08 0.00 40.4 45.4
2/23/20 - 0300 43.8 3.8 96 42.8 SW | 222 2.6 5.6 0.00 0.000 0.08 0.00 40.4 45.4
2/23/20 - 0200 41.7 3.0 98 41.3 WSW | 243 3.1 5.1 0.00 0.000 0.08 0.00 40.4 45.4
2/23/20 - 0100 42.3 2.9 97 41.5 S | 178 2.0 3.6 0.00 0.000 0.08 0.00 42.1 45.4
2/23/20 - 0000 44.8 2.0 96 43.6 SE | 133 0.5 2.2 0.00 0.000 0.08 0.00 43.6 64.5
2/22/20 - 2300 45.4 2.6 94 43.7 SSW | 205 2.0 3.7 0.00 0.000 0.08 0.00 43.6 64.5
2/22/20 - 2200 44.7 1.8 93 42.9 SW | 230 1.5 4.5 0.00 0.000 0.08 0.00 43.6 64.5
2/22/20 - 2100 47.2 3.5 88 43.9 SW | 229 3.8 8.8 0.00 0.000 0.08 0.00 46.9 64.5
2/22/20 - 2000 48.8 0.7 84 44.3 SSW | 209 4.4 7.9 0.00 0.000 0.08 0.00 48.7 64.5
2/22/20 - 1900 50.0 0.5 80 44.2 SSW | 213 4.6 8.8 0.00 0.000 0.08 0.00 48.8 64.5
2/22/20 - 1800 51.4 0.1 76 44.0 SW | 216 7.0 15.3 0.00 0.000 0.08 0.00 48.8 64.5
2/22/20 - 1700 55.3 -0.6 68 45.0 SW | 224 8.2 18.8 0.00 0.003 0.08 0.00 48.8 64.5
2/22/20 - 1600 56.9 -2.1 66 45.8 SW | 226 10.4 18.4 0.00 0.007 0.08 0.00 48.8 64.5
2/22/20 - 1500 59.3 -3.1 65 47.7 WSW | 237 12.1 22.2 0.00 0.011 0.08 0.00 48.8 64.5
2/22/20 - 1400 60.4 -3.6 67 49.6 SW | 226 10.1 19.7 0.00 0.014 0.08 0.00 48.8 64.5
2/22/20 - 1300 59.8 -3.5 70 49.8 SW | 220 11.3 21.3 0.00 0.014 0.07 0.00 48.8 64.5
2/22/20 - 1200 61.9 -2.5 66 50.5 N | 8 5.3 17.7 0.00 0.014 0.07 0.00 48.8 64.5
2/22/20 - 1100 62.6 -4.8 63 49.7 NE | 35 3.9 9.1 0.00 0.012 0.07 0.00 48.8 63.2
2/22/20 - 1000 61.5 -3.7 68 50.7 N | 9 2.3 6.6 0.00 0.008 0.07 0.00 48.8 61.5
2/22/20 - 0900 56.2 1.0 65 44.6 SW | 222 1.7 4.5 0.00 0.002 0.07 0.00 48.8 59.6
2/22/20 - 0800 49.4 2.4 77 42.6 SSE | 151 2.0 5.0 0.00 0.000 0.07 0.00 49.3 59.6
2/22/20 - 0700 51.5 2.2 72 43.0 SSW | 194 3.0 6.5 0.00 0.000 0.07 0.00 49.9 59.6
2/22/20 - 0600 50.6 3.3 74 42.5 SW | 218 1.6 5.6 0.00 0.000 0.07 0.00 50.0 59.6
2/22/20 - 0500 51.9 4.3 69 42.2 NW | 304 2.7 6.0 0.00 0.000 0.07 0.00 50.9 59.6
2/22/20 - 0400 51.4 3.3 73 43.0 WSW | 250 3.1 6.4 0.00 0.000 0.07 0.00 51.3 59.6
2/22/20 - 0300 52.9 2.3 66 41.8 SW | 232 2.7 6.5 0.00 0.000 0.07 0.00 52.5 59.6
2/22/20 - 0200 56.9 2.2 56 41.6 ESE | 120 4.8 13.4 0.00 0.000 0.07 0.00 52.5 59.6
2/22/20 - 0100 57.2 2.9 51 39.3 SSW | 202 3.7 10.6 0.00 0.000 0.07 0.00 52.5 57.2
2/22/20 - 0000 54.1 2.8 63 42.0 SW | 229 4.1 7.3 0.00 0.000 0.07 0.00 38.2 70.6
2/21/20 - 2300 56.1 3.2 59 41.9 SW | 218 4.8 9.7 0.00 0.000 0.07 0.00 38.2 70.6
2/21/20 - 2200 56.0 2.4 57 41.0 SW | 215 4.3 7.6 0.00 0.000 0.07 0.00 38.2 70.6
2/21/20 - 2100 56.8 4.4 60 43.3 WNW | 295 1.9 7.3 0.00 0.000 0.07 0.00 38.2 70.6
2/21/20 - 2000 61.7 2.8 48 41.6 W | 266 5.3 10.3 0.00 0.000 0.07 0.00 38.2 70.6
2/21/20 - 1900 62.6 1.6 45 41.1 WSW | 244 5.6 12.0 0.00 0.000 0.07 0.00 38.2 70.6
2/21/20 - 1800 65.4 2.2 38 39.0 WNW | 290 2.8 6.5 0.00 0.000 0.07 0.00 38.2 70.6
2/21/20 - 1700 67.9 1.5 34 38.5 N | 357 3.4 7.9 0.00 0.001 0.07 0.00 38.2 70.6
2/21/20 - 1600 69.8 -1.8 32 38.7 NNW | 328 3.9 7.2 0.00 0.006 0.07 0.00 38.2 70.6
2/21/20 - 1500 68.6 -1.5 33 38.4 NW | 316 3.3 7.9 0.00 0.007 0.07 0.00 38.2 70.2
2/21/20 - 1400 69.1 -3.3 32 37.8 NW | 326 2.8 6.4 0.00 0.009 0.07 0.00 38.2 69.6
Max 69.8 4.4 99 50.7 - 12.1 22.2 0.00 0.014 0.08 0.00 52.5 70.6
Avg 54.2 0.5 70 43.4 - 4.2 9.2 0.00 0.003 0.08 - - -
Min 40.2 -5.2 32 37.8 - 0.5 2.2 0.00 0.000 0.07 0.00 38.2 45.4
Total - - - - - - - 0.00 0.162 - - - -
Calm: 0.0%
Calm: 0.0%